Time;durP1;ratioP1;P1;durP2;ratioP2;P2;SDS_P1;SDS_P2;PMS_P1;PMS_P2;Temp;Humidity;BMP_temperature;BMP_pressure;BME280_temperature;BME280_humidity;BME280_pressure;Samples;Min_cycle;Max_cycle;Signal;HPM_P1;HPM_P2
2022/08/20 00:00:27;;;;;;;21.33;11.23;;;;;;;;;;5029394;28;20060;-85
2022/08/20 00:02:54;;;;;;;24.08;11.43;;;;;;;;;;5027017;28;20083;-80
2022/08/20 00:05:21;;;;;;;16.25;9.77;;;;;;;;;;5033895;28;20083;-80
2022/08/20 00:07:46;;;;;;;21.65;10.02;;;;;;;;;;5026865;28;20021;-80
2022/08/20 00:10:12;;;;;;;21.63;9.90;;;;;;;;;;5028125;28;20053;-80
2022/08/20 00:12:41;;;;;;;23.55;12.38;;;;;;;;;;5022292;28;20278;-80
2022/08/20 00:15:07;;;;;;;20.88;10.88;;;;;;;;;;5028518;28;20110;-81
2022/08/20 00:17:41;;;;;;;21.58;11.45;;;;;;;;;;5056779;28;20101;-80
2022/08/20 00:20:09;;;;;;;22.02;10.93;;;;;;;;;;5028712;28;20021;-85
2022/08/20 00:22:34;;;;;;;27.77;11.73;;;;;;;;;;5026927;28;20025;-81
2022/08/20 00:25:00;;;;;;;20.98;11.18;;;;;;;;;;5044695;28;20038;-80
2022/08/20 00:27:25;;;;;;;18.42;8.93;;;;;;;;;;5025339;28;20033;-81
2022/08/20 00:29:50;;;;;;;20.52;10.75;;;;;;;;;;5022978;28;20420;-86
2022/08/20 00:32:15;;;;;;;29.60;13.43;;;;;;;;;;5024588;28;20084;-80
2022/08/20 00:34:41;;;;;;;19.60;11.13;;;;;;;;;;5023384;28;20036;-81
2022/08/20 00:37:07;;;;;;;22.63;10.80;;;;;;;;;;5039447;28;20021;-81
2022/08/20 00:39:32;;;;;;;20.70;10.45;;;;;;;;;;5025562;28;20698;-86
2022/08/20 00:42:00;;;;;;;24.63;10.57;;;;;;;;;;5055270;28;20052;-85
2022/08/20 00:44:26;;;;;;;20.35;11.02;;;;;;;;;;5020171;28;20029;-85
2022/08/20 00:46:52;;;;;;;20.50;10.60;;;;;;;;;;5042107;28;20421;-81
2022/08/20 00:49:21;;;;;;;21.90;11.68;;;;;;;;;;5023398;28;20041;-81
2022/08/20 00:51:50;;;;;;;27.00;11.93;;;;;;;;;;5023603;28;20378;-86
2022/08/20 00:54:37;;;;;;;22.35;10.88;;;;;;;;;;5038020;28;20039;-83
2022/08/20 00:57:04;;;;;;;19.50;9.57;;;;;;;;;;5025318;28;20156;-82
2022/08/20 00:59:32;;;;;;;25.10;11.43;;;;;;;;;;5021000;28;20040;-81
2022/08/20 01:01:58;;;;;;;17.02;9.32;;;;;;;;;;5042493;28;20029;-81
2022/08/20 01:04:25;;;;;;;20.40;8.70;;;;;;;;;;5057068;28;20061;-85
2022/08/20 01:06:51;;;;;;;18.52;9.55;;;;;;;;;;5027686;28;20025;-81
2022/08/20 01:09:16;;;;;;;22.95;10.48;;;;;;;;;;5039280;28;20501;-81
2022/08/20 01:11:41;;;;;;;26.85;8.95;;;;;;;;;;5025795;28;20032;-81
2022/08/20 01:17:07;;;;;;;16.25;8.93;;;;;;;;;;5004345;28;20413;-85
2022/08/20 01:19:43;;;;;;;18.17;9.57;;;;;;;;;;5039130;28;20039;-86
2022/08/20 01:25:28;;;;;;;22.15;9.70;;;;;;;;;;5027671;28;20106;-86
2022/08/20 01:27:54;;;;;;;18.83;9.38;;;;;;;;;;4985966;28;20117;-86
2022/08/20 01:30:19;;;;;;;21.90;8.82;;;;;;;;;;5014638;28;20120;-82
2022/08/20 01:32:45;;;;;;;15.88;7.80;;;;;;;;;;5023251;28;20013;-86
2022/08/20 01:35:10;;;;;;;20.67;9.55;;;;;;;;;;5023863;28;20017;-81
2022/08/20 01:37:35;;;;;;;19.15;8.25;;;;;;;;;;5026377;28;20029;-87
2022/08/20 01:40:02;;;;;;;19.55;8.63;;;;;;;;;;5026816;28;20034;-86
2022/08/20 01:42:36;;;;;;;22.92;8.90;;;;;;;;;;5028330;28;20031;-87
2022/08/20 01:45:03;;;;;;;24.80;8.57;;;;;;;;;;5027177;28;20104;-87
2022/08/20 01:47:30;;;;;;;25.45;9.88;;;;;;;;;;5024563;28;20026;-80
2022/08/20 01:49:58;;;;;;;19.90;9.52;;;;;;;;;;5023615;28;20044;-85
2022/08/20 01:52:38;;;;;;;25.08;11.05;;;;;;;;;;5023543;28;20036;-81
2022/08/20 01:55:04;;;;;;;22.85;10.18;;;;;;;;;;5057778;28;20378;-81
2022/08/20 01:57:29;;;;;;;18.55;8.50;;;;;;;;;;5060017;28;20036;-87
2022/08/20 01:59:54;;;;;;;22.73;8.80;;;;;;;;;;5043514;28;20029;-82
2022/08/20 02:02:20;;;;;;;22.73;8.32;;;;;;;;;;5024910;28;20029;-81
2022/08/20 02:04:46;;;;;;;17.10;8.55;;;;;;;;;;5024171;28;20477;-81
2022/08/20 02:07:12;;;;;;;20.40;9.80;;;;;;;;;;5025130;28;20025;-81
2022/08/20 02:09:38;;;;;;;13.02;8.13;;;;;;;;;;5025846;28;20470;-80
2022/08/20 02:12:04;;;;;;;13.32;7.22;;;;;;;;;;5021619;28;20108;-81
2022/08/20 02:14:30;;;;;;;18.98;8.63;;;;;;;;;;5027484;28;20029;-83
2022/08/20 02:16:57;;;;;;;16.42;9.48;;;;;;;;;;5022989;28;20112;-86
2022/08/20 02:19:31;;;;;;;24.25;9.65;;;;;;;;;;5023684;28;20593;-81
2022/08/20 02:21:58;;;;;;;16.15;7.95;;;;;;;;;;5026018;28;20033;-87
2022/08/20 02:24:26;;;;;;;21.58;10.20;;;;;;;;;;5024310;28;20026;-87
2022/08/20 02:26:53;;;;;;;21.65;8.27;;;;;;;;;;5022081;28;20013;-87
2022/08/20 02:29:18;;;;;;;18.33;9.65;;;;;;;;;;5024299;28;20413;-81
2022/08/20 02:31:44;;;;;;;20.58;9.40;;;;;;;;;;5024940;28;20029;-87
2022/08/20 02:34:10;;;;;;;21.80;8.38;;;;;;;;;;5023681;28;20398;-86
2022/08/20 02:36:36;;;;;;;14.95;8.50;;;;;;;;;;5022509;28;20120;-88
2022/08/20 02:39:06;;;;;;;19.00;8.52;;;;;;;;;;5023940;28;20104;-87
2022/08/20 02:41:32;;;;;;;20.45;10.55;;;;;;;;;;5023705;28;20033;-82
2022/08/20 02:43:57;;;;;;;29.38;10.63;;;;;;;;;;5025311;28;20048;-87
2022/08/20 02:46:22;;;;;;;16.90;8.10;;;;;;;;;;5021395;28;20108;-81
2022/08/20 02:48:50;;;;;;;19.42;8.93;;;;;;;;;;5023482;28;20275;-82
2022/08/20 02:51:15;;;;;;;19.08;8.95;;;;;;;;;;5023294;28;20025;-86
2022/08/20 02:53:41;;;;;;;17.07;9.87;;;;;;;;;;5022568;28;20025;-81
2022/08/20 02:56:07;;;;;;;17.73;7.40;;;;;;;;;;5023559;28;20282;-87
2022/08/20 02:58:32;;;;;;;17.25;8.82;;;;;;;;;;5025448;28;20394;-81
2022/08/20 03:00:57;;;;;;;22.83;10.88;;;;;;;;;;5028867;28;20044;-81
2022/08/20 03:03:23;;;;;;;23.63;10.05;;;;;;;;;;5027460;28;20116;-81
2022/08/20 03:05:51;;;;;;;15.55;8.60;;;;;;;;;;5041046;28;20025;-81
2022/08/20 03:08:16;;;;;;;22.40;11.30;;;;;;;;;;5027747;28;20032;-82
2022/08/20 03:10:44;;;;;;;18.92;9.57;;;;;;;;;;5044183;28;20053;-80
2022/08/20 03:13:11;;;;;;;22.45;9.57;;;;;;;;;;5029167;28;20125;-81
2022/08/20 03:15:37;;;;;;;17.80;10.30;;;;;;;;;;5031227;28;20022;-86
2022/08/20 03:18:02;;;;;;;25.90;11.10;;;;;;;;;;5031774;28;20030;-81
2022/08/20 03:20:27;;;;;;;19.58;8.80;;;;;;;;;;5029603;28;20033;-81
2022/08/20 03:22:53;;;;;;;19.60;10.25;;;;;;;;;;5027558;28;20037;-85
2022/08/20 03:25:18;;;;;;;19.35;9.18;;;;;;;;;;5028386;28;20033;-81
2022/08/20 03:27:45;;;;;;;28.90;12.30;;;;;;;;;;5029952;28;20492;-81
2022/08/20 03:30:11;;;;;;;24.95;11.07;;;;;;;;;;5029812;28;20021;-81
2022/08/20 03:32:37;;;;;;;19.42;10.30;;;;;;;;;;5027357;28;20038;-81
2022/08/20 03:35:03;;;;;;;20.92;10.50;;;;;;;;;;5027333;28;20637;-81
2022/08/20 03:37:30;;;;;;;22.10;11.57;;;;;;;;;;5043158;28;20025;-86
2022/08/20 03:39:55;;;;;;;30.45;10.73;;;;;;;;;;5029455;28;20040;-81
2022/08/20 03:42:20;;;;;;;23.27;11.17;;;;;;;;;;5027471;28;20026;-87
2022/08/20 03:44:47;;;;;;;17.52;9.13;;;;;;;;;;5028727;28;20325;-85
2022/08/20 03:47:12;;;;;;;31.80;11.27;;;;;;;;;;5025762;28;20021;-82
2022/08/20 03:49:37;;;;;;;23.02;10.13;;;;;;;;;;5029257;28;20018;-87
2022/08/20 03:52:04;;;;;;;22.17;10.88;;;;;;;;;;5041482;28;20041;-87
2022/08/20 03:54:30;;;;;;;26.42;12.13;;;;;;;;;;5033987;28;20374;-82
2022/08/20 03:56:55;;;;;;;26.27;10.55;;;;;;;;;;5029173;28;20044;-86
2022/08/20 03:59:20;;;;;;;27.42;9.13;;;;;;;;;;5026951;28;20029;-81
2022/08/20 04:01:46;;;;;;;20.08;9.80;;;;;;;;;;5028918;28;20124;-82
2022/08/20 04:04:11;;;;;;;20.60;8.75;;;;;;;;;;5043318;28;20026;-83
2022/08/20 04:06:36;;;;;;;22.48;9.10;;;;;;;;;;5025416;28;20053;-82
2022/08/20 04:09:04;;;;;;;26.25;10.25;;;;;;;;;;5022276;28;20041;-86
2022/08/20 04:11:32;;;;;;;25.20;12.32;;;;;;;;;;5040718;28;20026;-82
2022/08/20 04:13:57;;;;;;;21.33;10.55;;;;;;;;;;5056319;28;20495;-88
2022/08/20 04:16:22;;;;;;;16.17;9.65;;;;;;;;;;5044017;28;20040;-82
2022/08/20 04:18:47;;;;;;;18.38;10.15;;;;;;;;;;5029162;28;20767;-87
2022/08/20 04:21:13;;;;;;;25.17;9.70;;;;;;;;;;5028744;28;20506;-86
2022/08/20 04:23:41;;;;;;;23.30;10.30;;;;;;;;;;5026946;28;20482;-82
2022/08/20 04:26:09;;;;;;;21.90;10.27;;;;;;;;;;5027563;28;20017;-88
2022/08/20 04:28:34;;;;;;;16.98;10.20;;;;;;;;;;5044084;28;20391;-85
2022/08/20 04:31:00;;;;;;;21.88;10.48;;;;;;;;;;5026531;28;20024;-87
2022/08/20 04:33:26;;;;;;;21.70;8.52;;;;;;;;;;5041752;28;20022;-82
2022/08/20 04:35:53;;;;;;;18.00;9.02;;;;;;;;;;5022484;28;20540;-86
2022/08/20 04:38:19;;;;;;;20.77;10.18;;;;;;;;;;5031283;28;20148;-86
2022/08/20 04:40:53;;;;;;;26.33;9.95;;;;;;;;;;5023908;28;20025;-87
2022/08/20 04:43:19;;;;;;;24.52;12.15;;;;;;;;;;5022287;28;20044;-87
2022/08/20 04:45:45;;;;;;;23.33;10.93;;;;;;;;;;5023671;28;20025;-86
2022/08/20 04:48:11;;;;;;;30.63;11.75;;;;;;;;;;5026377;28;20416;-81
2022/08/20 04:50:37;;;;;;;21.65;9.93;;;;;;;;;;5027040;28;20021;-87
2022/08/20 04:53:03;;;;;;;23.73;12.55;;;;;;;;;;5026402;28;20028;-87
2022/08/20 04:55:29;;;;;;;29.10;10.73;;;;;;;;;;5025495;28;20120;-87
2022/08/20 04:57:56;;;;;;;38.92;12.90;;;;;;;;;;5039310;28;20580;-87
2022/08/20 05:00:22;;;;;;;25.65;9.45;;;;;;;;;;5058854;28;20056;-81
2022/08/20 05:02:48;;;;;;;19.42;10.30;;;;;;;;;;5030949;28;20053;-81
2022/08/20 05:05:13;;;;;;;24.35;11.30;;;;;;;;;;5055588;28;20057;-81
2022/08/20 05:07:40;;;;;;;22.85;9.38;;;;;;;;;;5041942;28;21445;-84
2022/08/20 05:10:06;;;;;;;22.40;10.38;;;;;;;;;;5039066;28;20053;-81
2022/08/20 05:12:31;;;;;;;15.80;9.80;;;;;;;;;;5025460;28;20022;-85
2022/08/20 05:14:57;;;;;;;22.15;10.23;;;;;;;;;;5028836;28;20064;-81
2022/08/20 05:17:22;;;;;;;18.73;8.57;;;;;;;;;;5027119;28;20104;-81
2022/08/20 05:19:47;;;;;;;23.98;10.35;;;;;;;;;;5029219;28;20026;-81
2022/08/20 05:22:13;;;;;;;18.42;9.00;;;;;;;;;;5027655;28;20814;-86
2022/08/20 05:24:39;;;;;;;22.92;9.32;;;;;;;;;;5024033;28;20552;-82
2022/08/20 05:27:04;;;;;;;18.13;8.02;;;;;;;;;;5038738;28;20042;-87
2022/08/20 05:29:29;;;;;;;18.30;8.40;;;;;;;;;;5041162;28;20030;-81
2022/08/20 05:31:55;;;;;;;17.52;8.15;;;;;;;;;;5025609;28;20646;-81
2022/08/20 05:34:21;;;;;;;26.25;8.02;;;;;;;;;;5028859;28;20033;-81
2022/08/20 05:36:48;;;;;;;22.95;8.00;;;;;;;;;;5025933;28;20036;-81
2022/08/20 05:39:14;;;;;;;20.10;7.65;;;;;;;;;;5025056;28;20029;-81
2022/08/20 05:41:39;;;;;;;14.15;7.43;;;;;;;;;;5026629;28;20040;-84
2022/08/20 05:44:08;;;;;;;17.95;9.00;;;;;;;;;;5041513;28;20109;-82
2022/08/20 05:46:33;;;;;;;18.70;7.32;;;;;;;;;;5025490;28;20036;-82
2022/08/20 05:49:00;;;;;;;21.88;9.05;;;;;;;;;;5027749;28;20397;-87
2022/08/20 05:51:28;;;;;;;17.88;8.13;;;;;;;;;;5026316;28;20117;-87
2022/08/20 05:53:53;;;;;;;16.15;6.88;;;;;;;;;;5042269;28;20037;-87
2022/08/20 05:56:18;;;;;;;19.25;7.53;;;;;;;;;;5023803;28;20029;-82
2022/08/20 05:58:44;;;;;;;18.10;7.50;;;;;;;;;;5024928;28;20086;-82
2022/08/20 06:01:09;;;;;;;17.92;7.90;;;;;;;;;;5022173;28;20030;-81
2022/08/20 06:06:19;;;;;;;13.00;6.75;;;;;;;;;;5028758;28;20290;-86
2022/08/20 06:08:44;;;;;;;16.98;5.90;;;;;;;;;;5030182;28;20470;-83
2022/08/20 06:11:09;;;;;;;13.90;6.67;;;;;;;;;;5031526;28;20056;-81
2022/08/20 06:13:34;;;;;;;15.80;6.55;;;;;;;;;;5042074;28;20279;-81
2022/08/20 06:16:00;;;;;;;15.43;7.25;;;;;;;;;;5022780;28;20033;-87
2022/08/20 06:18:28;;;;;;;17.50;7.03;;;;;;;;;;5023177;28;20034;-88
2022/08/20 06:20:53;;;;;;;14.82;5.47;;;;;;;;;;5027694;28;20185;-87
2022/08/20 06:23:19;;;;;;;10.25;5.45;;;;;;;;;;5027069;28;20112;-87
2022/08/20 06:25:44;;;;;;;15.43;5.32;;;;;;;;;;5022653;28;20144;-86
2022/08/20 06:28:12;;;;;;;13.15;5.60;;;;;;;;;;5023351;28;20026;-87
2022/08/20 06:30:37;;;;;;;17.42;5.50;;;;;;;;;;5022271;28;20013;-81
2022/08/20 06:33:02;;;;;;;16.65;6.93;;;;;;;;;;5051914;28;20033;-87
2022/08/20 06:35:28;;;;;;;13.35;4.95;;;;;;;;;;5027783;28;20100;-82
2022/08/20 06:37:53;;;;;;;20.15;4.75;;;;;;;;;;5024142;28;20057;-82
2022/08/20 06:40:21;;;;;;;12.90;4.90;;;;;;;;;;5041247;28;20025;-82
2022/08/20 06:42:47;;;;;;;12.50;4.97;;;;;;;;;;5024656;28;20022;-83
2022/08/20 06:45:14;;;;;;;17.58;4.47;;;;;;;;;;5023151;28;20040;-81
2022/08/20 06:47:40;;;;;;;14.25;4.15;;;;;;;;;;5022436;28;20481;-87
2022/08/20 06:50:13;;;;;;;13.55;4.07;;;;;;;;;;5024460;28;20367;-87
2022/08/20 06:52:39;;;;;;;11.52;4.43;;;;;;;;;;5030224;28;20519;-86
2022/08/20 06:55:06;;;;;;;12.52;4.53;;;;;;;;;;5025233;28;20037;-82
2022/08/20 06:57:31;;;;;;;6.80;3.80;;;;;;;;;;5025533;28;20116;-87
2022/08/20 06:59:57;;;;;;;12.45;4.32;;;;;;;;;;5025727;28;20167;-82
2022/08/20 07:02:23;;;;;;;15.00;3.58;;;;;;;;;;5023765;28;20025;-87
2022/08/20 07:04:48;;;;;;;15.68;3.78;;;;;;;;;;5026420;28;20031;-83
2022/08/20 07:07:18;;;;;;;17.40;4.90;;;;;;;;;;5030896;28;20038;-87
2022/08/20 07:09:43;;;;;;;13.48;3.13;;;;;;;;;;5021379;28;20333;-82
2022/08/20 07:12:09;;;;;;;10.50;3.17;;;;;;;;;;5030189;28;20493;-82
2022/08/20 07:14:37;;;;;;;18.77;4.82;;;;;;;;;;5039811;28;20374;-83
2022/08/20 07:17:03;;;;;;;15.25;5.35;;;;;;;;;;5027079;28;20061;-87
2022/08/20 07:19:28;;;;;;;10.20;3.75;;;;;;;;;;5045128;28;20157;-87
2022/08/20 07:21:53;;;;;;;8.52;4.00;;;;;;;;;;5031266;28;20065;-87
2022/08/20 07:24:19;;;;;;;10.03;3.57;;;;;;;;;;5027743;28;20028;-86
2022/08/20 07:26:44;;;;;;;12.50;3.78;;;;;;;;;;5021252;28;20377;-88
2022/08/20 07:29:12;;;;;;;8.68;3.47;;;;;;;;;;5021668;28;20025;-83
2022/08/20 07:34:25;;;;;;;14.70;3.25;;;;;;;;;;5025264;28;20063;-82
2022/08/20 07:36:50;;;;;;;9.77;3.17;;;;;;;;;;5028715;28;20029;-84
2022/08/20 07:39:15;;;;;;;19.20;3.15;;;;;;;;;;5058163;28;20121;-82
2022/08/20 07:41:41;;;;;;;24.40;3.60;;;;;;;;;;5025402;28;20080;-81
2022/08/20 07:44:06;;;;;;;16.63;3.90;;;;;;;;;;5028737;28;20460;-81
2022/08/20 07:46:31;;;;;;;12.70;3.22;;;;;;;;;;5025790;28;20025;-80
2022/08/20 07:48:56;;;;;;;11.80;2.53;;;;;;;;;;5043943;28;20044;-81
2022/08/20 07:51:22;;;;;;;11.60;3.08;;;;;;;;;;5030750;28;20436;-81
2022/08/20 07:53:48;;;;;;;12.73;4.47;;;;;;;;;;5048565;28;20040;-80
2022/08/20 07:56:20;;;;;;;19.48;4.18;;;;;;;;;;5045321;28;20026;-81
2022/08/20 07:58:49;;;;;;;8.27;3.53;;;;;;;;;;5023409;28;20065;-82
2022/08/20 08:01:15;;;;;;;17.70;3.08;;;;;;;;;;5014953;28;20041;-82
2022/08/20 08:03:41;;;;;;;13.57;3.67;;;;;;;;;;5023819;28;20116;-82
2022/08/20 08:06:06;;;;;;;10.50;3.22;;;;;;;;;;5036674;28;21648;-81
2022/08/20 08:08:33;;;;;;;15.27;3.50;;;;;;;;;;5023246;28;20478;-80
2022/08/20 08:11:00;;;;;;;16.70;3.42;;;;;;;;;;5022079;28;20383;-82
2022/08/20 08:13:26;;;;;;;7.78;3.28;;;;;;;;;;5033727;28;20039;-85
2022/08/20 08:15:53;;;;;;;9.18;3.30;;;;;;;;;;5044867;28;20028;-85
2022/08/20 08:18:20;;;;;;;8.43;2.20;;;;;;;;;;5027311;28;20034;-85
2022/08/20 08:20:46;;;;;;;9.10;2.15;;;;;;;;;;5042649;28;20029;-85
2022/08/20 08:23:14;;;;;;;8.93;2.47;;;;;;;;;;5030696;28;20409;-85
2022/08/20 08:25:46;;;;;;;10.50;2.60;;;;;;;;;;5045102;28;20063;-83
2022/08/20 08:28:13;;;;;;;12.73;2.58;;;;;;;;;;5028273;28;20035;-84
2022/08/20 08:30:39;;;;;;;7.95;2.53;;;;;;;;;;5043731;28;20041;-86
2022/08/20 08:35:48;;;;;;;9.10;2.40;;;;;;;;;;5027179;28;20045;-86
2022/08/20 08:38:17;;;;;;;6.93;2.83;;;;;;;;;;5042379;28;20033;-85
2022/08/20 08:40:43;;;;;;;13.00;2.65;;;;;;;;;;5041550;28;20550;-85
2022/08/20 08:43:10;;;;;;;12.48;2.67;;;;;;;;;;5040530;28;20096;-86
2022/08/20 08:45:42;;;;;;;8.57;2.45;;;;;;;;;;5026853;28;20037;-84
2022/08/20 08:48:08;;;;;;;6.55;2.58;;;;;;;;;;5038491;28;20048;-85
2022/08/20 08:50:34;;;;;;;14.65;2.58;;;;;;;;;;5042339;28;20084;-86
2022/08/20 08:53:01;;;;;;;10.57;2.45;;;;;;;;;;5026860;28;20080;-86
2022/08/20 08:55:27;;;;;;;7.35;2.90;;;;;;;;;;5023258;28;20057;-84
2022/08/20 08:57:54;;;;;;;9.63;2.35;;;;;;;;;;5028123;28;20083;-86
2022/08/20 09:00:22;;;;;;;10.95;2.58;;;;;;;;;;5041690;28;20479;-86
2022/08/20 09:03:11;;;;;;;6.82;2.60;;;;;;;;;;5040870;28;20087;-86
2022/08/20 09:05:37;;;;;;;12.40;2.10;;;;;;;;;;5021509;28;20448;-84
2022/08/20 09:08:02;;;;;;;9.90;2.55;;;;;;;;;;5027249;28;20022;-84
2022/08/20 09:10:28;;;;;;;9.85;2.15;;;;;;;;;;5042586;28;20096;-86
2022/08/20 09:12:53;;;;;;;14.88;3.10;;;;;;;;;;5022683;28;20160;-87
2022/08/20 09:15:20;;;;;;;13.15;2.80;;;;;;;;;;5023277;28;20436;-86
2022/08/20 09:17:45;;;;;;;11.85;2.70;;;;;;;;;;5020169;28;20026;-86
2022/08/20 09:20:10;;;;;;;11.90;2.58;;;;;;;;;;5038337;28;20040;-86
2022/08/20 09:22:35;;;;;;;12.35;3.40;;;;;;;;;;5020969;28;20033;-86
2022/08/20 09:25:02;;;;;;;10.82;2.88;;;;;;;;;;5021788;28;20026;-86
2022/08/20 09:27:30;;;;;;;7.93;2.40;;;;;;;;;;5041227;28;20022;-84
2022/08/20 09:29:56;;;;;;;13.63;2.60;;;;;;;;;;5025005;28;20109;-84
2022/08/20 09:32:22;;;;;;;11.65;3.55;;;;;;;;;;5026866;28;20160;-84
2022/08/20 09:34:50;;;;;;;11.15;2.78;;;;;;;;;;5039792;28;20040;-86
2022/08/20 09:37:16;;;;;;;16.95;3.33;;;;;;;;;;5041499;28;20116;-86
2022/08/20 09:39:42;;;;;;;9.85;2.95;;;;;;;;;;5022501;28;20125;-85
2022/08/20 09:42:12;;;;;;;13.65;2.40;;;;;;;;;;5040744;28;20095;-84
2022/08/20 09:44:37;;;;;;;14.13;3.63;;;;;;;;;;5025741;28;20037;-84
2022/08/20 09:47:03;;;;;;;11.02;2.72;;;;;;;;;;5026128;28;20021;-86
2022/08/20 09:49:28;;;;;;;10.60;2.60;;;;;;;;;;5022386;28;20091;-85
2022/08/20 09:51:53;;;;;;;11.07;2.25;;;;;;;;;;5017904;28;20028;-84
2022/08/20 09:54:19;;;;;;;9.27;3.72;;;;;;;;;;5037431;28;20087;-85
2022/08/20 09:56:45;;;;;;;7.63;3.20;;;;;;;;;;5025650;28;20463;-86
2022/08/20 09:59:13;;;;;;;7.70;2.38;;;;;;;;;;5023100;28;20108;-87
2022/08/20 10:01:38;;;;;;;10.43;2.65;;;;;;;;;;5039814;28;20124;-85
2022/08/20 10:04:03;;;;;;;13.73;2.90;;;;;;;;;;5021556;28;20805;-84
2022/08/20 10:06:28;;;;;;;17.27;3.45;;;;;;;;;;5024586;28;20021;-84
2022/08/20 10:08:54;;;;;;;11.57;2.92;;;;;;;;;;5025268;28;20071;-86
2022/08/20 10:11:19;;;;;;;8.57;2.38;;;;;;;;;;5022532;28;20041;-85
2022/08/20 10:13:44;;;;;;;15.13;3.60;;;;;;;;;;5041438;28;20124;-86
2022/08/20 10:16:10;;;;;;;7.93;2.10;;;;;;;;;;5022481;28;20029;-86
2022/08/20 10:18:35;;;;;;;14.27;2.58;;;;;;;;;;5023066;28;20404;-87
2022/08/20 10:21:00;;;;;;;9.52;2.45;;;;;;;;;;5021189;28;20575;-84
2022/08/20 10:23:25;;;;;;;10.10;3.75;;;;;;;;;;5022612;28;20100;-86
2022/08/20 10:25:51;;;;;;;11.93;2.60;;;;;;;;;;5025142;28;20034;-84
2022/08/20 10:28:16;;;;;;;12.13;2.67;;;;;;;;;;5025966;28;20026;-86
2022/08/20 10:30:43;;;;;;;14.93;3.08;;;;;;;;;;5021768;28;20375;-84
2022/08/20 10:33:09;;;;;;;8.93;2.60;;;;;;;;;;5026719;28;20029;-86
2022/08/20 10:35:34;;;;;;;13.32;2.92;;;;;;;;;;5042533;28;20033;-84
2022/08/20 10:37:59;;;;;;;9.33;2.10;;;;;;;;;;5022933;28;20026;-84
2022/08/20 10:40:24;;;;;;;13.05;4.88;;;;;;;;;;5039502;28;20347;-84
2022/08/20 10:42:50;;;;;;;7.30;2.20;;;;;;;;;;5022459;28;20030;-84
2022/08/20 10:45:16;;;;;;;15.45;3.72;;;;;;;;;;5025856;28;20116;-87
2022/08/20 10:47:41;;;;;;;10.60;2.70;;;;;;;;;;5024758;28;20040;-86
2022/08/20 10:50:09;;;;;;;7.47;2.63;;;;;;;;;;5021620;28;20033;-86
2022/08/20 10:52:38;;;;;;;17.88;3.35;;;;;;;;;;5022910;28;20108;-84
2022/08/20 10:55:04;;;;;;;8.45;3.28;;;;;;;;;;5039704;28;20056;-84
2022/08/20 10:57:30;;;;;;;13.20;3.75;;;;;;;;;;5041256;28;20050;-84
2022/08/20 10:59:57;;;;;;;12.48;2.97;;;;;;;;;;5024042;28;20056;-84
2022/08/20 11:02:22;;;;;;;13.38;3.08;;;;;;;;;;5040392;28;20025;-84
2022/08/20 11:04:48;;;;;;;13.88;4.70;;;;;;;;;;5025472;28;20438;-84
2022/08/20 11:07:16;;;;;;;14.00;2.83;;;;;;;;;;5023748;28;20073;-86
2022/08/20 11:09:42;;;;;;;12.55;3.42;;;;;;;;;;5039869;28;20417;-85
2022/08/20 11:12:09;;;;;;;10.68;2.83;;;;;;;;;;5019235;28;20033;-82
2022/08/20 11:14:34;;;;;;;13.82;3.00;;;;;;;;;;5028021;28;20083;-82
2022/08/20 11:17:00;;;;;;;10.30;2.60;;;;;;;;;;5035375;28;20033;-80
2022/08/20 11:19:25;;;;;;;8.25;2.53;;;;;;;;;;5023596;28;20026;-80
2022/08/20 11:21:51;;;;;;;9.95;2.92;;;;;;;;;;5029909;28;20063;-82
2022/08/20 11:24:17;;;;;;;9.80;3.55;;;;;;;;;;5043446;28;20029;-80
2022/08/20 11:26:46;;;;;;;12.07;3.33;;;;;;;;;;5038025;28;20022;-79
2022/08/20 11:29:12;;;;;;;12.85;3.42;;;;;;;;;;5025428;28;20029;-82
2022/08/20 11:31:38;;;;;;;13.10;3.33;;;;;;;;;;5055487;28;20018;-79
2022/08/20 11:34:03;;;;;;;17.65;2.85;;;;;;;;;;5051858;28;20784;-81
2022/08/20 11:36:30;;;;;;;12.80;2.72;;;;;;;;;;5021152;28;20098;-86
2022/08/20 11:38:55;;;;;;;12.95;3.40;;;;;;;;;;5024969;28;20494;-87
2022/08/20 11:41:20;;;;;;;17.55;2.90;;;;;;;;;;5029980;28;20037;-88
2022/08/20 11:43:46;;;;;;;11.60;3.28;;;;;;;;;;5016589;28;20040;-87
2022/08/20 11:46:12;;;;;;;10.85;3.35;;;;;;;;;;5057987;28;20036;-90
2022/08/20 11:48:37;;;;;;;14.70;2.85;;;;;;;;;;5024734;28;20064;-86
2022/08/20 11:51:04;;;;;;;9.70;3.00;;;;;;;;;;5024317;28;20050;-87
2022/08/20 11:53:29;;;;;;;15.82;3.92;;;;;;;;;;5042853;28;20282;-88
2022/08/20 11:55:54;;;;;;;12.48;3.28;;;;;;;;;;5044201;28;20037;-89
2022/08/20 11:58:23;;;;;;;11.52;2.85;;;;;;;;;;5044455;28;20049;-88
2022/08/20 12:00:51;;;;;;;11.32;3.58;;;;;;;;;;5023888;28;20028;-86
2022/08/20 12:03:16;;;;;;;9.65;2.40;;;;;;;;;;5020998;28;20053;-87
2022/08/20 12:05:43;;;;;;;11.48;3.13;;;;;;;;;;5042133;28;20061;-88
2022/08/20 12:08:09;;;;;;;10.30;2.83;;;;;;;;;;5044058;28;20038;-88
2022/08/20 12:10:35;;;;;;;8.73;2.63;;;;;;;;;;5025193;28;20516;-88
2022/08/20 12:13:03;;;;;;;8.50;2.53;;;;;;;;;;5027576;28;20057;-86
2022/08/20 12:15:28;;;;;;;11.82;2.50;;;;;;;;;;5026001;28;20431;-86
2022/08/20 12:17:54;;;;;;;11.55;3.60;;;;;;;;;;5042339;28;20087;-87
2022/08/20 12:20:23;;;;;;;7.95;2.33;;;;;;;;;;5027295;28;20152;-88
2022/08/20 12:22:52;;;;;;;9.00;2.60;;;;;;;;;;5042712;28;20052;-86
2022/08/20 12:25:18;;;;;;;15.25;3.20;;;;;;;;;;5042717;28;20038;-86
2022/08/20 12:27:44;;;;;;;14.93;3.30;;;;;;;;;;5042605;28;20052;-87
2022/08/20 12:30:10;;;;;;;12.85;3.22;;;;;;;;;;5025577;28;20481;-87
2022/08/20 12:32:36;;;;;;;16.95;3.33;;;;;;;;;;5024826;28;20025;-87
2022/08/20 12:35:02;;;;;;;12.27;3.03;;;;;;;;;;5026618;28;20880;-88
2022/08/20 12:37:28;;;;;;;12.05;2.47;;;;;;;;;;5027984;28;20397;-88
2022/08/20 12:39:55;;;;;;;9.77;2.70;;;;;;;;;;5023127;28;20034;-88
2022/08/20 12:42:21;;;;;;;14.43;3.50;;;;;;;;;;5023723;28;20026;-88
2022/08/20 12:44:46;;;;;;;13.30;2.83;;;;;;;;;;5026279;28;20033;-87
2022/08/20 12:47:13;;;;;;;10.20;2.75;;;;;;;;;;5023921;28;20517;-88
2022/08/20 12:49:40;;;;;;;9.90;2.25;;;;;;;;;;5042953;28;21076;-87
2022/08/20 12:52:07;;;;;;;18.08;5.13;;;;;;;;;;5024772;28;20022;-86
2022/08/20 12:54:32;;;;;;;6.32;2.40;;;;;;;;;;5038978;28;20033;-87
2022/08/20 12:56:57;;;;;;;5.93;2.42;;;;;;;;;;5042330;28;20033;-87
2022/08/20 12:59:23;;;;;;;9.63;2.90;;;;;;;;;;5025877;28;20161;-90
2022/08/20 13:01:48;;;;;;;7.22;2.92;;;;;;;;;;5030911;28;20029;-87
2022/08/20 13:04:14;;;;;;;8.88;2.63;;;;;;;;;;5025688;28;20037;-87
2022/08/20 13:06:39;;;;;;;9.70;3.20;;;;;;;;;;5038738;28;20044;-89
2022/08/20 13:09:04;;;;;;;12.05;3.38;;;;;;;;;;5040359;28;20325;-89
2022/08/20 13:11:29;;;;;;;13.95;4.22;;;;;;;;;;5024336;28;20025;-88
2022/08/20 13:13:58;;;;;;;11.60;3.70;;;;;;;;;;5042522;28;20017;-87
2022/08/20 13:16:23;;;;;;;15.60;3.92;;;;;;;;;;5026944;28;20028;-87
2022/08/20 13:18:48;;;;;;;12.43;3.22;;;;;;;;;;5024667;28;20029;-88
2022/08/20 13:21:14;;;;;;;12.17;3.60;;;;;;;;;;5027283;28;20485;-89
2022/08/20 13:23:40;;;;;;;16.77;4.22;;;;;;;;;;5039714;28;20287;-88
2022/08/20 13:26:05;;;;;;;15.80;4.10;;;;;;;;;;5025838;28;20028;-87
2022/08/20 13:28:33;;;;;;;10.25;4.00;;;;;;;;;;5024321;28;20025;-87
2022/08/20 13:31:00;;;;;;;12.82;4.93;;;;;;;;;;5022764;28;20080;-86
2022/08/20 13:33:26;;;;;;;17.52;5.07;;;;;;;;;;5040172;28;20045;-87
2022/08/20 13:35:51;;;;;;;14.20;4.50;;;;;;;;;;5041823;28;20037;-88
2022/08/20 13:38:17;;;;;;;26.17;7.38;;;;;;;;;;5039518;28;20041;-87
2022/08/20 13:40:42;;;;;;;18.25;4.43;;;;;;;;;;5025161;28;20543;-89
2022/08/20 13:43:07;;;;;;;18.95;4.50;;;;;;;;;;5026045;28;20029;-87
2022/08/20 13:45:36;;;;;;;14.98;5.82;;;;;;;;;;5023576;28;20029;-89
2022/08/20 13:48:01;;;;;;;17.58;5.00;;;;;;;;;;5055577;28;20025;-90
2022/08/20 13:50:26;;;;;;;15.43;4.97;;;;;;;;;;5023258;28;20495;-88
2022/08/20 13:52:55;;;;;;;12.70;4.82;;;;;;;;;;5041630;28;20022;-86
2022/08/20 13:55:21;;;;;;;17.38;5.18;;;;;;;;;;5040575;28;20488;-87
2022/08/20 13:57:47;;;;;;;13.45;4.43;;;;;;;;;;5026326;28;20020;-87
2022/08/20 14:00:33;;;;;;;14.48;4.88;;;;;;;;;;5041998;28;20029;-89
2022/08/20 14:02:59;;;;;;;24.38;6.13;;;;;;;;;;5023729;28;20033;-89
2022/08/20 14:05:24;;;;;;;11.55;4.72;;;;;;;;;;5029227;28;20128;-87
2022/08/20 14:07:49;;;;;;;15.60;4.30;;;;;;;;;;5039358;28;20204;-87
2022/08/20 14:10:21;;;;;;;14.75;4.50;;;;;;;;;;5022461;28;20290;-87
2022/08/20 14:12:46;;;;;;;17.25;4.32;;;;;;;;;;5042111;28;20193;-87
2022/08/20 14:15:11;;;;;;;11.90;4.28;;;;;;;;;;5039346;28;20107;-88
2022/08/20 14:17:38;;;;;;;11.48;3.72;;;;;;;;;;5023724;28;20025;-87
2022/08/20 14:20:06;;;;;;;14.50;4.75;;;;;;;;;;5025566;28;20025;-87
2022/08/20 14:22:32;;;;;;;23.52;5.30;;;;;;;;;;5040207;28;20030;-89
2022/08/20 14:25:01;;;;;;;12.18;4.45;;;;;;;;;;5023195;28;20046;-90
2022/08/20 14:27:26;;;;;;;15.15;5.65;;;;;;;;;;5022457;28;20069;-87
2022/08/20 14:29:55;;;;;;;16.38;4.35;;;;;;;;;;5040472;28;20045;-89
2022/08/20 14:32:23;;;;;;;13.85;4.57;;;;;;;;;;5041749;28;20026;-89
2022/08/20 14:34:48;;;;;;;14.00;3.92;;;;;;;;;;5039126;28;20040;-90
2022/08/20 14:37:15;;;;;;;15.75;4.32;;;;;;;;;;5023847;28;20394;-87